Time;durP1;ratioP1;P1;durP2;ratioP2;P2;SDS_P1;SDS_P2;PMS_P1;PMS_P2;Temp;Humidity;BMP_temperature;BMP_pressure;BME280_temperature;BME280_humidity;BME280_pressure;Samples;Min_cycle;Max_cycle;Signal;HPM_P1;HPM_P2
2022/09/15 00:02:14;;;;;;;2.83;2.12;;;;;;;;;;615646;234;27250;-60
2022/09/15 00:04:43;;;;;;;4.10;2.35;;;;;;;;;;615625;233;26567;-61
2022/09/15 00:07:12;;;;;;;2.62;2.20;;;;;;;;;;615608;233;26572;-61
2022/09/15 00:09:41;;;;;;;3.25;2.00;;;;;;;;;;615525;234;26757;-61
2022/09/15 00:12:10;;;;;;;2.17;1.98;;;;;;;;;;612267;234;26640;-61
2022/09/15 00:14:38;;;;;;;4.70;2.70;;;;;;;;;;612638;232;26579;-61
2022/09/15 00:17:07;;;;;;;2.60;2.28;;;;;;;;;;616416;231;26585;-60
2022/09/15 00:19:37;;;;;;;4.75;2.25;;;;;;;;;;621962;230;26594;-60
2022/09/15 00:22:06;;;;;;;4.22;2.28;;;;;;;;;;613655;233;26578;-60
2022/09/15 00:24:34;;;;;;;2.17;2.00;;;;;;;;;;613175;233;26831;-60
2022/09/15 00:27:03;;;;;;;3.53;2.37;;;;;;;;;;613129;231;26582;-61
2022/09/15 00:29:32;;;;;;;3.50;2.17;;;;;;;;;;620793;231;26808;-61
2022/09/15 00:32:01;;;;;;;2.97;2.12;;;;;;;;;;615087;233;26645;-61
2022/09/15 00:34:30;;;;;;;2.72;1.95;;;;;;;;;;620476;231;26546;-61
2022/09/15 00:36:59;;;;;;;3.30;2.28;;;;;;;;;;617134;231;26802;-60
2022/09/15 00:39:28;;;;;;;2.40;1.70;;;;;;;;;;621102;231;26562;-61
2022/09/15 00:41:56;;;;;;;2.17;1.98;;;;;;;;;;620473;230;26596;-61
2022/09/15 00:44:31;;;;;;;3.42;2.30;;;;;;;;;;615926;233;26628;-61
2022/09/15 00:47:00;;;;;;;2.60;1.98;;;;;;;;;;615650;231;26609;-60
2022/09/15 00:49:29;;;;;;;4.90;2.20;;;;;;;;;;614853;230;26935;-61
2022/09/15 00:52:00;;;;;;;3.85;2.10;;;;;;;;;;615955;231;26605;-61
2022/09/15 00:54:28;;;;;;;3.50;2.15;;;;;;;;;;612378;235;26621;-61
2022/09/15 00:56:57;;;;;;;3.30;1.92;;;;;;;;;;612454;231;26898;-60
2022/09/15 00:59:26;;;;;;;4.22;2.05;;;;;;;;;;614577;231;26620;-61
2022/09/15 01:01:55;;;;;;;3.65;1.98;;;;;;;;;;617890;231;26853;-61
2022/09/15 01:04:24;;;;;;;4.00;2.35;;;;;;;;;;614516;231;26649;-60
2022/09/15 01:06:53;;;;;;;3.58;2.08;;;;;;;;;;612304;234;26675;-61
2022/09/15 01:09:22;;;;;;;2.42;2.00;;;;;;;;;;612084;234;26625;-61
2022/09/15 01:11:51;;;;;;;3.05;2.05;;;;;;;;;;612431;231;26964;-60
2022/09/15 01:14:20;;;;;;;3.00;2.15;;;;;;;;;;620335;231;26554;-60
2022/09/15 01:17:08;;;;;;;3.08;2.20;;;;;;;;;;613660;231;27315;-60
2022/09/15 01:19:40;;;;;;;4.60;2.30;;;;;;;;;;606597;235;26653;-61
2022/09/15 01:22:29;;;;;;;3.33;2.10;;;;;;;;;;611800;231;26864;-61
2022/09/15 01:24:59;;;;;;;4.35;2.20;;;;;;;;;;609090;235;26620;-61
2022/09/15 01:27:31;;;;;;;4.30;2.05;;;;;;;;;;613377;232;26618;-61
2022/09/15 01:30:07;;;;;;;2.33;1.90;;;;;;;;;;617955;231;26799;-61
2022/09/15 01:35:24;;;;;;;4.00;2.33;;;;;;;;;;619008;231;26573;-61
2022/09/15 01:37:55;;;;;;;2.53;2.33;;;;;;;;;;612773;233;26643;-60
2022/09/15 01:40:23;;;;;;;2.12;1.95;;;;;;;;;;612855;233;26600;-61
2022/09/15 01:42:52;;;;;;;3.90;2.08;;;;;;;;;;621388;230;26645;-61
2022/09/15 01:45:21;;;;;;;2.58;2.15;;;;;;;;;;620501;231;26591;-61
2022/09/15 01:47:50;;;;;;;3.22;2.00;;;;;;;;;;614838;230;26652;-60
2022/09/15 01:50:19;;;;;;;4.87;2.08;;;;;;;;;;614498;231;27034;-61
2022/09/15 01:52:48;;;;;;;2.83;2.08;;;;;;;;;;624803;230;26872;-61
2022/09/15 01:55:18;;;;;;;2.00;1.80;;;;;;;;;;615798;233;26612;-61
2022/09/15 01:57:47;;;;;;;3.15;2.08;;;;;;;;;;615665;231;27298;-61
2022/09/15 02:00:15;;;;;;;3.80;2.28;;;;;;;;;;612754;233;26561;-61
2022/09/15 02:02:46;;;;;;;2.55;1.95;;;;;;;;;;619368;230;26600;-61
2022/09/15 02:05:19;;;;;;;2.62;2.17;;;;;;;;;;615372;231;26578;-61
2022/09/15 02:07:48;;;;;;;2.42;1.80;;;;;;;;;;616395;231;26594;-61
2022/09/15 02:10:32;;;;;;;4.10;2.03;;;;;;;;;;614578;231;26609;-61
2022/09/15 02:13:02;;;;;;;3.40;1.87;;;;;;;;;;611670;234;26873;-61
2022/09/15 02:15:32;;;;;;;4.15;2.00;;;;;;;;;;612114;235;26647;-61
2022/09/15 02:17:58;;;;;;;2.03;1.87;;;;;;;;;;614698;231;26616;-61
2022/09/15 02:20:33;;;;;;;2.53;1.73;;;;;;;;;;612337;235;26605;-61
2022/09/15 02:23:01;;;;;;;3.30;2.05;;;;;;;;;;612212;234;26645;-61
2022/09/15 02:25:31;;;;;;;3.17;2.17;;;;;;;;;;612783;231;26630;-61
2022/09/15 02:27:59;;;;;;;2.37;1.90;;;;;;;;;;614288;234;26560;-61
2022/09/15 02:30:28;;;;;;;2.40;1.77;;;;;;;;;;615443;234;26569;-61
2022/09/15 02:32:57;;;;;;;3.03;1.80;;;;;;;;;;620810;231;27175;-61
2022/09/15 02:35:27;;;;;;;2.83;1.92;;;;;;;;;;618932;231;26572;-61
2022/09/15 02:37:55;;;;;;;3.83;1.90;;;;;;;;;;614216;231;26791;-61
2022/09/15 02:40:24;;;;;;;2.03;1.50;;;;;;;;;;618589;230;26618;-61
2022/09/15 02:42:53;;;;;;;4.22;2.20;;;;;;;;;;618452;231;26586;-61
2022/09/15 02:45:21;;;;;;;1.77;1.52;;;;;;;;;;618343;231;26567;-61
2022/09/15 02:47:50;;;;;;;2.30;2.10;;;;;;;;;;613357;231;26622;-61
2022/09/15 02:50:19;;;;;;;2.47;1.77;;;;;;;;;;613069;233;26637;-61
2022/09/15 02:52:48;;;;;;;4.15;1.70;;;;;;;;;;613340;231;26684;-61
2022/09/15 02:55:17;;;;;;;2.05;1.83;;;;;;;;;;614739;231;26613;-61
2022/09/15 02:57:46;;;;;;;2.75;1.90;;;;;;;;;;618745;231;26566;-61
2022/09/15 03:00:16;;;;;;;2.90;2.00;;;;;;;;;;613295;231;26559;-61
2022/09/15 03:02:44;;;;;;;3.10;1.90;;;;;;;;;;612725;233;26822;-61
2022/09/15 03:05:13;;;;;;;2.53;1.75;;;;;;;;;;613359;231;27187;-61
2022/09/15 03:07:42;;;;;;;2.08;1.83;;;;;;;;;;618963;227;26540;-61
2022/09/15 03:10:10;;;;;;;2.92;1.90;;;;;;;;;;614974;231;26844;-61
2022/09/15 03:12:39;;;;;;;2.60;1.60;;;;;;;;;;620074;231;26566;-61
2022/09/15 03:15:08;;;;;;;2.83;1.80;;;;;;;;;;612935;231;26811;-61
2022/09/15 03:17:37;;;;;;;2.55;1.90;;;;;;;;;;615624;231;26573;-61
2022/09/15 03:20:07;;;;;;;2.47;2.10;;;;;;;;;;621357;231;26831;-61
2022/09/15 03:22:35;;;;;;;2.40;1.75;;;;;;;;;;620958;231;26656;-61
2022/09/15 03:25:05;;;;;;;1.98;1.80;;;;;;;;;;621064;231;26623;-61
2022/09/15 03:27:33;;;;;;;2.85;2.10;;;;;;;;;;623008;231;26549;-61
2022/09/15 03:30:03;;;;;;;3.47;2.12;;;;;;;;;;619465;231;26612;-61
2022/09/15 03:32:31;;;;;;;4.45;1.62;;;;;;;;;;612478;234;26552;-61
2022/09/15 03:35:00;;;;;;;1.98;1.87;;;;;;;;;;614383;234;26568;-61
2022/09/15 03:37:29;;;;;;;3.90;2.10;;;;;;;;;;613071;231;27250;-61
2022/09/15 03:39:58;;;;;;;3.00;1.95;;;;;;;;;;612495;234;26581;-61
2022/09/15 03:42:26;;;;;;;2.40;1.75;;;;;;;;;;613161;234;26828;-61
2022/09/15 03:44:55;;;;;;;2.90;1.65;;;;;;;;;;613177;231;26566;-61
2022/09/15 03:47:24;;;;;;;2.92;1.87;;;;;;;;;;614270;231;26645;-61
2022/09/15 03:49:54;;;;;;;2.60;1.83;;;;;;;;;;613233;232;26626;-61
2022/09/15 03:52:22;;;;;;;2.65;1.87;;;;;;;;;;616547;230;26643;-61
2022/09/15 03:54:51;;;;;;;2.30;1.90;;;;;;;;;;613545;233;26800;-61
2022/09/15 03:57:20;;;;;;;3.35;1.98;;;;;;;;;;614016;231;26580;-61
2022/09/15 03:59:48;;;;;;;3.72;2.00;;;;;;;;;;614478;230;27306;-61
2022/09/15 04:02:18;;;;;;;1.70;1.60;;;;;;;;;;614120;231;26635;-61
2022/09/15 04:04:46;;;;;;;2.45;1.67;;;;;;;;;;616176;233;26572;-61
2022/09/15 04:07:15;;;;;;;2.72;1.92;;;;;;;;;;616385;230;26580;-61
2022/09/15 04:09:45;;;;;;;2.72;1.90;;;;;;;;;;616837;230;26602;-61
2022/09/15 04:12:14;;;;;;;2.33;2.10;;;;;;;;;;618143;231;26650;-61
2022/09/15 04:14:43;;;;;;;2.15;1.95;;;;;;;;;;615118;230;26593;-61
2022/09/15 04:17:14;;;;;;;1.90;1.80;;;;;;;;;;614558;231;26773;-61
2022/09/15 04:19:40;;;;;;;3.15;1.92;;;;;;;;;;613961;231;26560;-61
2022/09/15 04:22:09;;;;;;;1.80;1.70;;;;;;;;;;620086;230;26598;-61
2022/09/15 04:24:38;;;;;;;3.37;2.00;;;;;;;;;;613589;230;26575;-61
2022/09/15 04:27:07;;;;;;;3.12;1.92;;;;;;;;;;612464;233;26588;-61
2022/09/15 04:29:36;;;;;;;3.08;1.90;;;;;;;;;;614932;231;26821;-61
2022/09/15 04:32:05;;;;;;;2.42;1.75;;;;;;;;;;618329;231;26566;-61
2022/09/15 04:34:34;;;;;;;3.42;2.00;;;;;;;;;;623763;231;26568;-61
2022/09/15 04:37:03;;;;;;;3.53;1.90;;;;;;;;;;613852;231;26818;-61
2022/09/15 04:39:31;;;;;;;2.35;1.65;;;;;;;;;;617374;231;26576;-61
2022/09/15 04:42:04;;;;;;;2.72;1.98;;;;;;;;;;616977;231;26820;-61
2022/09/15 04:44:29;;;;;;;2.72;1.83;;;;;;;;;;613570;231;26572;-61
2022/09/15 04:46:58;;;;;;;2.30;2.08;;;;;;;;;;614920;231;26566;-61
2022/09/15 04:49:27;;;;;;;3.10;1.80;;;;;;;;;;613122;231;26593;-61
2022/09/15 04:51:56;;;;;;;2.15;1.90;;;;;;;;;;613815;234;26604;-61
2022/09/15 04:54:24;;;;;;;2.00;1.80;;;;;;;;;;615024;231;26577;-61
2022/09/15 04:56:53;;;;;;;2.10;1.85;;;;;;;;;;618617;231;26639;-61
2022/09/15 04:59:23;;;;;;;3.92;1.83;;;;;;;;;;615499;231;26893;-61
2022/09/15 05:01:53;;;;;;;1.83;1.73;;;;;;;;;;614986;231;26639;-61
2022/09/15 05:04:21;;;;;;;3.05;2.03;;;;;;;;;;616872;233;26674;-61
2022/09/15 05:06:50;;;;;;;2.08;1.67;;;;;;;;;;616289;231;26831;-61
2022/09/15 05:09:19;;;;;;;3.05;1.87;;;;;;;;;;614428;231;26573;-61
2022/09/15 05:11:48;;;;;;;2.03;1.80;;;;;;;;;;613254;233;26888;-61
2022/09/15 05:14:17;;;;;;;1.70;1.60;;;;;;;;;;621444;231;26594;-61
2022/09/15 05:16:46;;;;;;;1.60;1.50;;;;;;;;;;614824;230;26854;-61
2022/09/15 05:19:15;;;;;;;1.77;1.50;;;;;;;;;;615657;230;26657;-61
2022/09/15 05:21:44;;;;;;;2.95;1.85;;;;;;;;;;621182;231;26601;-61
2022/09/15 05:24:14;;;;;;;3.67;2.00;;;;;;;;;;619913;230;26594;-61
2022/09/15 05:26:42;;;;;;;2.05;1.95;;;;;;;;;;621335;231;26939;-61
2022/09/15 05:29:12;;;;;;;2.50;1.80;;;;;;;;;;619229;231;26560;-61
2022/09/15 05:31:40;;;;;;;2.00;1.77;;;;;;;;;;614343;233;26580;-61
2022/09/15 05:34:09;;;;;;;2.03;1.60;;;;;;;;;;617034;230;26606;-61
2022/09/15 05:36:38;;;;;;;1.87;1.67;;;;;;;;;;619536;231;26531;-61
2022/09/15 05:39:07;;;;;;;2.35;1.70;;;;;;;;;;616030;231;26839;-61
2022/09/15 05:41:36;;;;;;;4.03;2.22;;;;;;;;;;612961;231;27097;-61
2022/09/15 05:44:06;;;;;;;6.53;2.20;;;;;;;;;;617177;231;26616;-61
2022/09/15 05:46:34;;;;;;;3.97;2.10;;;;;;;;;;616623;231;26664;-61
2022/09/15 05:49:03;;;;;;;4.07;1.73;;;;;;;;;;617980;231;26613;-64
2022/09/15 05:51:32;;;;;;;3.08;2.25;;;;;;;;;;614983;231;26559;-65
2022/09/15 05:54:01;;;;;;;2.60;1.70;;;;;;;;;;614083;234;27099;-65
2022/09/15 05:56:30;;;;;;;2.97;1.70;;;;;;;;;;612519;234;26625;-65
2022/09/15 05:58:59;;;;;;;1.77;1.67;;;;;;;;;;612522;234;26746;-64
2022/09/15 06:01:28;;;;;;;1.90;1.70;;;;;;;;;;613380;231;26568;-65
2022/09/15 06:03:57;;;;;;;13.25;3.90;;;;;;;;;;620664;231;26523;-65
2022/09/15 06:06:25;;;;;;;55.45;11.30;;;;;;;;;;620569;231;26555;-64
2022/09/15 06:08:55;;;;;;;101.55;22.83;;;;;;;;;;615962;231;26565;-65
2022/09/15 06:11:25;;;;;;;101.60;22.00;;;;;;;;;;616816;231;26563;-66
2022/09/15 06:13:53;;;;;;;90.62;18.58;;;;;;;;;;621301;229;26665;-62
2022/09/15 06:16:23;;;;;;;86.47;17.30;;;;;;;;;;624771;230;26598;-64
2022/09/15 06:18:52;;;;;;;72.78;15.82;;;;;;;;;;621216;230;26691;-63
2022/09/15 06:21:20;;;;;;;64.15;14.55;;;;;;;;;;615267;230;26568;-65
2022/09/15 06:23:53;;;;;;;28.05;8.20;;;;;;;;;;613035;233;26633;-66
2022/09/15 06:26:21;;;;;;;29.20;7.80;;;;;;;;;;616243;231;26858;-67
2022/09/15 06:28:50;;;;;;;23.70;8.13;;;;;;;;;;622120;231;26583;-66
2022/09/15 06:31:19;;;;;;;25.48;7.28;;;;;;;;;;621940;231;26776;-66
2022/09/15 06:33:49;;;;;;;31.10;6.90;;;;;;;;;;621774;231;26569;-66
2022/09/15 06:36:17;;;;;;;20.23;6.62;;;;;;;;;;621339;231;26567;-65
2022/09/15 06:38:46;;;;;;;26.25;6.82;;;;;;;;;;620762;231;26811;-66
2022/09/15 06:41:15;;;;;;;21.73;6.20;;;;;;;;;;616147;230;26825;-66
2022/09/15 06:43:44;;;;;;;17.42;5.25;;;;;;;;;;615384;233;26625;-66
2022/09/15 06:46:13;;;;;;;15.30;5.45;;;;;;;;;;616064;230;26613;-66
2022/09/15 06:48:42;;;;;;;13.57;5.45;;;;;;;;;;617268;230;26838;-66
2022/09/15 06:51:10;;;;;;;13.10;4.72;;;;;;;;;;615826;231;26572;-66
2022/09/15 06:53:39;;;;;;;8.82;3.33;;;;;;;;;;618871;231;26829;-66
2022/09/15 06:56:09;;;;;;;6.47;2.85;;;;;;;;;;615128;231;26567;-66
2022/09/15 06:58:38;;;;;;;9.20;3.72;;;;;;;;;;613801;231;26547;-66
2022/09/15 07:01:08;;;;;;;8.55;3.30;;;;;;;;;;619283;231;26849;-66
2022/09/15 07:03:37;;;;;;;9.68;3.00;;;;;;;;;;619911;231;26662;-66
2022/09/15 07:06:06;;;;;;;6.28;2.40;;;;;;;;;;618143;231;26764;-66
2022/09/15 07:08:35;;;;;;;8.93;2.90;;;;;;;;;;612699;234;26655;-67
2022/09/15 07:11:04;;;;;;;4.28;2.10;;;;;;;;;;612396;234;26582;-66
2022/09/15 07:13:33;;;;;;;7.47;2.80;;;;;;;;;;612141;235;26648;-66
2022/09/15 07:16:02;;;;;;;49.83;7.85;;;;;;;;;;612537;234;26839;-65
2022/09/15 07:18:31;;;;;;;107.37;20.88;;;;;;;;;;612243;228;26697;-65
2022/09/15 07:21:00;;;;;;;901.53;98.55;;;;;;;;;;612210;234;26600;-64
2022/09/15 07:23:30;;;;;;;1686.18;170.50;;;;;;;;;;612534;234;26655;-66
2022/09/15 07:26:04;;;;;;;140.37;29.25;;;;;;;;;;614116;232;26586;-65
2022/09/15 07:28:33;;;;;;;120.90;26.52;;;;;;;;;;613611;233;26570;-64
2022/09/15 07:31:01;;;;;;;110.35;24.52;;;;;;;;;;613386;234;26788;-63
2022/09/15 07:33:30;;;;;;;97.78;23.10;;;;;;;;;;613239;233;26594;-64
2022/09/15 07:35:59;;;;;;;69.85;19.48;;;;;;;;;;613133;228;26662;-63
2022/09/15 07:38:28;;;;;;;82.40;21.92;;;;;;;;;;613115;233;26615;-63
2022/09/15 07:41:03;;;;;;;78.43;19.98;;;;;;;;;;613017;234;26610;-64
2022/09/15 07:43:32;;;;;;;69.82;18.60;;;;;;;;;;612823;233;26590;-63
2022/09/15 07:46:00;;;;;;;60.05;17.73;;;;;;;;;;612801;233;26573;-64
2022/09/15 07:48:29;;;;;;;64.97;17.83;;;;;;;;;;612798;234;26798;-63
2022/09/15 07:50:59;;;;;;;45.58;14.75;;;;;;;;;;612727;233;26601;-64
2022/09/15 07:53:28;;;;;;;56.97;15.60;;;;;;;;;;612788;235;26837;-63
2022/09/15 07:55:56;;;;;;;42.50;12.98;;;;;;;;;;612770;233;26550;-63
2022/09/15 07:58:25;;;;;;;23.67;8.82;;;;;;;;;;612823;233;26788;-63
2022/09/15 08:00:54;;;;;;;40.35;12.40;;;;;;;;;;612589;234;26618;-63
2022/09/15 08:03:23;;;;;;;38.47;11.90;;;;;;;;;;612123;235;26564;-63
2022/09/15 08:05:52;;;;;;;27.58;9.10;;;;;;;;;;612515;234;26824;-63
2022/09/15 08:08:21;;;;;;;33.88;11.60;;;;;;;;;;613303;231;26636;-62
2022/09/15 08:10:50;;;;;;;33.33;10.30;;;;;;;;;;622595;231;26657;-63
2022/09/15 08:13:19;;;;;;;27.67;8.75;;;;;;;;;;615599;231;26873;-63
2022/09/15 08:15:48;;;;;;;24.17;8.00;;;;;;;;;;613060;234;26579;-63
2022/09/15 08:18:17;;;;;;;24.42;7.97;;;;;;;;;;614447;233;26551;-63
2022/09/15 08:20:45;;;;;;;14.15;5.50;;;;;;;;;;614337;231;26568;-62
2022/09/15 08:23:14;;;;;;;15.15;5.93;;;;;;;;;;613255;234;26592;-62
2022/09/15 08:25:44;;;;;;;9.25;3.97;;;;;;;;;;618493;231;26640;-63
2022/09/15 08:28:13;;;;;;;7.55;3.10;;;;;;;;;;622040;231;26969;-63
2022/09/15 08:30:41;;;;;;;7.25;2.80;;;;;;;;;;617455;231;26620;-62
2022/09/15 08:33:10;;;;;;;11.63;3.22;;;;;;;;;;614870;228;26549;-62
2022/09/15 08:35:39;;;;;;;4.97;2.45;;;;;;;;;;613269;232;26577;-63
2022/09/15 08:38:08;;;;;;;7.62;2.87;;;;;;;;;;616152;233;26613;-62
2022/09/15 08:40:37;;;;;;;5.40;2.75;;;;;;;;;;615151;233;27208;-63
2022/09/15 08:43:06;;;;;;;6.55;2.50;;;;;;;;;;614231;233;26585;-63
2022/09/15 08:45:35;;;;;;;5.87;2.65;;;;;;;;;;615482;233;26793;-63
2022/09/15 08:48:04;;;;;;;7.90;2.75;;;;;;;;;;613810;233;26676;-63
2022/09/15 08:50:34;;;;;;;4.75;2.40;;;;;;;;;;614615;232;26882;-63
2022/09/15 08:53:08;;;;;;;4.12;2.70;;;;;;;;;;619075;231;26880;-63
2022/09/15 08:55:40;;;;;;;6.90;2.67;;;;;;;;;;622610;230;26573;-63
2022/09/15 08:58:12;;;;;;;3.25;2.12;;;;;;;;;;613721;233;26583;-63
2022/09/15 09:00:40;;;;;;;5.25;2.67;;;;;;;;;;613872;233;26801;-63
2022/09/15 09:03:12;;;;;;;3.45;2.50;;;;;;;;;;612775;233;26601;-63
2022/09/15 09:05:41;;;;;;;7.37;2.28;;;;;;;;;;619467;231;26823;-64
2022/09/15 09:08:12;;;;;;;6.62;2.50;;;;;;;;;;613828;231;26567;-62
2022/09/15 09:10:45;;;;;;;5.75;2.33;;;;;;;;;;613952;233;27097;-63
2022/09/15 09:13:18;;;;;;;3.80;2.25;;;;;;;;;;612796;233;26595;-63
2022/09/15 09:15:48;;;;;;;9.32;2.58;;;;;;;;;;619651;231;26626;-64
2022/09/15 09:18:23;;;;;;;4.28;2.17;;;;;;;;;;615114;231;26588;-63
2022/09/15 09:21:07;;;;;;;4.35;2.37;;;;;;;;;;612663;231;26622;-64
2022/09/15 09:23:36;;;;;;;5.95;2.70;;;;;;;;;;613518;231;27337;-62
2022/09/15 09:26:04;;;;;;;5.53;2.42;;;;;;;;;;614791;234;26549;-63
2022/09/15 09:28:34;;;;;;;7.37;2.20;;;;;;;;;;613989;234;26528;-62
2022/09/15 09:31:05;;;;;;;5.18;2.72;;;;;;;;;;619378;231;26589;-63
2022/09/15 09:33:34;;;;;;;4.82;2.17;;;;;;;;;;620844;231;27101;-63
2022/09/15 09:36:02;;;;;;;2.55;2.10;;;;;;;;;;613430;234;26560;-64
2022/09/15 09:38:31;;;;;;;4.30;1.95;;;;;;;;;;614008;234;26758;-63
2022/09/15 09:41:00;;;;;;;4.60;1.85;;;;;;;;;;613261;234;26543;-64
2022/09/15 09:43:29;;;;;;;8.32;2.37;;;;;;;;;;617385;231;26631;-64
2022/09/15 09:45:58;;;;;;;4.55;2.17;;;;;;;;;;614800;233;26545;-64
2022/09/15 09:48:27;;;;;;;4.00;1.87;;;;;;;;;;617459;231;26618;-63
2022/09/15 09:50:56;;;;;;;4.18;2.05;;;;;;;;;;616673;231;26869;-63
2022/09/15 09:53:26;;;;;;;4.80;2.62;;;;;;;;;;614139;231;26571;-65
2022/09/15 09:55:54;;;;;;;12.73;2.58;;;;;;;;;;615764;233;26539;-65
2022/09/15 09:58:23;;;;;;;12.15;2.65;;;;;;;;;;613078;233;26825;-64
2022/09/15 10:00:52;;;;;;;5.45;2.08;;;;;;;;;;619133;231;26613;-66
2022/09/15 10:03:22;;;;;;;6.28;2.25;;;;;;;;;;613014;231;26637;-65
2022/09/15 10:06:10;;;;;;;4.12;2.08;;;;;;;;;;612600;234;26560;-66
2022/09/15 10:08:42;;;;;;;5.97;2.20;;;;;;;;;;612312;234;26780;-65
2022/09/15 10:11:10;;;;;;;10.65;2.55;;;;;;;;;;611502;234;26575;-65
2022/09/15 10:13:39;;;;;;;2.70;1.77;;;;;;;;;;612364;234;26839;-65
2022/09/15 10:16:08;;;;;;;5.43;2.20;;;;;;;;;;612100;234;26637;-65
2022/09/15 10:18:37;;;;;;;4.95;1.90;;;;;;;;;;612818;233;26583;-65
2022/09/15 10:21:06;;;;;;;7.35;1.98;;;;;;;;;;612758;233;26572;-65
2022/09/15 10:23:35;;;;;;;5.62;2.30;;;;;;;;;;612511;234;26587;-64
2022/09/15 10:26:09;;;;;;;6.90;2.05;;;;;;;;;;612571;235;26606;-65
2022/09/15 10:28:39;;;;;;;8.63;2.40;;;;;;;;;;613977;231;26840;-65
2022/09/15 10:31:09;;;;;;;4.70;1.92;;;;;;;;;;615653;234;26580;-66
2022/09/15 10:33:37;;;;;;;3.92;2.22;;;;;;;;;;615519;234;26837;-66
2022/09/15 10:36:07;;;;;;;4.57;1.85;;;;;;;;;;615592;231;26578;-65
2022/09/15 10:38:38;;;;;;;3.65;1.73;;;;;;;;;;617791;231;26671;-64
2022/09/15 10:41:11;;;;;;;3.50;1.60;;;;;;;;;;614250;234;26556;-63
2022/09/15 10:43:41;;;;;;;3.08;1.65;;;;;;;;;;613244;234;26593;-64
2022/09/15 10:46:10;;;;;;;3.42;1.55;;;;;;;;;;614685;228;26560;-64
2022/09/15 10:48:39;;;;;;;3.67;1.52;;;;;;;;;;619895;231;26652;-64
2022/09/15 10:51:10;;;;;;;3.17;1.40;;;;;;;;;;613261;234;26578;-65
2022/09/15 10:53:41;;;;;;;4.37;1.58;;;;;;;;;;613454;231;26580;-65
2022/09/15 10:56:12;;;;;;;8.40;2.35;;;;;;;;;;613600;231;26597;-65
2022/09/15 10:58:59;;;;;;;9.93;2.30;;;;;;;;;;619068;231;26613;-64
2022/09/15 11:01:43;;;;;;;6.28;2.30;;;;;;;;;;612028;233;26596;-64
2022/09/15 11:04:12;;;;;;;7.68;2.50;;;;;;;;;;613662;233;26606;-64
2022/09/15 11:06:43;;;;;;;6.28;2.30;;;;;;;;;;620136;231;26645;-65
2022/09/15 11:09:16;;;;;;;9.50;3.17;;;;;;;;;;614094;233;26580;-66
2022/09/15 11:11:48;;;;;;;5.50;2.65;;;;;;;;;;613936;233;27024;-66
2022/09/15 11:14:20;;;;;;;6.03;2.15;;;;;;;;;;615392;233;26596;-66
2022/09/15 11:16:55;;;;;;;7.05;2.20;;;;;;;;;;614625;231;26606;-66
2022/09/15 11:19:28;;;;;;;6.28;1.70;;;;;;;;;;622627;230;26774;-62
2022/09/15 11:21:57;;;;;;;3.22;1.73;;;;;;;;;;615261;230;26630;-65
2022/09/15 11:24:28;;;;;;;6.22;1.87;;;;;;;;;;615293;233;26851;-64
2022/09/15 11:26:57;;;;;;;4.18;1.60;;;;;;;;;;613367;233;26572;-63
2022/09/15 11:29:26;;;;;;;2.40;1.48;;;;;;;;;;614021;233;26838;-63
2022/09/15 11:31:55;;;;;;;4.12;1.48;;;;;;;;;;613213;230;26596;-62
2022/09/15 11:34:30;;;;;;;2.33;1.58;;;;;;;;;;615868;231;26854;-64
2022/09/15 11:36:58;;;;;;;5.43;1.58;;;;;;;;;;618175;231;26620;-64
2022/09/15 11:39:30;;;;;;;3.62;1.58;;;;;;;;;;613961;234;26593;-63
2022/09/15 11:41:59;;;;;;;2.15;1.25;;;;;;;;;;612967;234;26821;-63
2022/09/15 11:44:27;;;;;;;1.70;1.40;;;;;;;;;;619388;231;26624;-64
2022/09/15 11:47:12;;;;;;;2.12;1.23;;;;;;;;;;613365;234;26537;-64
2022/09/15 11:49:42;;;;;;;3.50;1.65;;;;;;;;;;613176;234;26606;-65
2022/09/15 11:52:13;;;;;;;3.17;1.17;;;;;;;;;;619240;231;26619;-64
2022/09/15 11:54:45;;;;;;;2.05;1.48;;;;;;;;;;622043;230;26618;-63
2022/09/15 11:57:17;;;;;;;1.75;1.40;;;;;;;;;;615572;231;26624;-65
2022/09/15 11:59:45;;;;;;;3.83;1.27;;;;;;;;;;622539;231;26651;-67
2022/09/15 12:02:18;;;;;;;3.53;1.42;;;;;;;;;;613917;231;26882;-67
2022/09/15 12:04:48;;;;;;;3.03;1.70;;;;;;;;;;614737;234;26798;-64
2022/09/15 12:07:18;;;;;;;6.47;1.73;;;;;;;;;;613120;234;26569;-67
2022/09/15 12:09:48;;;;;;;4.37;1.40;;;;;;;;;;618846;231;26574;-63
2022/09/15 12:12:15;;;;;;;1.85;1.20;;;;;;;;;;624755;229;26653;-63
2022/09/15 12:14:44;;;;;;;1.23;1.12;;;;;;;;;;622684;230;26572;-64
2022/09/15 12:17:15;;;;;;;4.10;1.45;;;;;;;;;;619723;230;26983;-65
2022/09/15 12:19:43;;;;;;;2.78;1.27;;;;;;;;;;614871;233;26563;-65
2022/09/15 12:22:17;;;;;;;3.03;1.50;;;;;;;;;;620314;227;26663;-64
2022/09/15 12:24:50;;;;;;;3.17;1.20;;;;;;;;;;613385;233;27002;-64
2022/09/15 12:27:18;;;;;;;4.70;1.50;;;;;;;;;;614532;228;26588;-64
2022/09/15 12:29:47;;;;;;;3.35;1.30;;;;;;;;;;614731;233;26866;-65
2022/09/15 12:32:17;;;;;;;2.45;1.25;;;;;;;;;;620018;231;26585;-63
2022/09/15 12:34:52;;;;;;;3.15;1.37;;;;;;;;;;614374;231;26578;-64
2022/09/15 12:37:29;;;;;;;2.70;1.50;;;;;;;;;;617290;231;26807;-64
2022/09/15 12:39:57;;;;;;;3.20;1.30;;;;;;;;;;614885;233;26605;-64
2022/09/15 12:42:26;;;;;;;5.32;1.55;;;;;;;;;;619950;227;26837;-63
2022/09/15 12:44:58;;;;;;;3.25;1.50;;;;;;;;;;613493;233;26577;-64
2022/09/15 12:47:30;;;;;;;2.12;1.10;;;;;;;;;;613828;233;26616;-62
2022/09/15 12:50:02;;;;;;;2.58;1.48;;;;;;;;;;614494;234;27202;-64
2022/09/15 12:52:49;;;;;;;3.83;1.37;;;;;;;;;;612765;233;26615;-63
2022/09/15 12:55:18;;;;;;;4.80;1.35;;;;;;;;;;610907;228;26597;-64
2022/09/15 12:57:47;;;;;;;2.03;1.20;;;;;;;;;;614152;234;26572;-64
2022/09/15 13:00:16;;;;;;;4.05;1.65;;;;;;;;;;619940;231;26845;-63
2022/09/15 13:02:46;;;;;;;5.57;1.60;;;;;;;;;;620249;231;26659;-64
2022/09/15 13:05:31;;;;;;;1.55;1.23;;;;;;;;;;612243;234;26625;-64
2022/09/15 13:07:59;;;;;;;1.95;1.30;;;;;;;;;;608538;228;26650;-64
2022/09/15 13:10:33;;;;;;;1.65;1.05;;;;;;;;;;619055;231;26623;-63
2022/09/15 13:13:04;;;;;;;4.72;1.62;;;;;;;;;;612856;229;26859;-64
2022/09/15 13:15:34;;;;;;;1.33;1.25;;;;;;;;;;613253;234;26615;-64
2022/09/15 13:18:03;;;;;;;3.08;1.30;;;;;;;;;;614388;228;27316;-64
2022/09/15 13:20:32;;;;;;;3.58;1.42;;;;;;;;;;612480;227;26627;-63
2022/09/15 13:23:01;;;;;;;2.22;1.10;;;;;;;;;;615081;231;27421;-63
2022/09/15 13:25:30;;;;;;;3.58;1.12;;;;;;;;;;614978;228;26595;-63
2022/09/15 13:27:59;;;;;;;2.28;1.33;;;;;;;;;;614127;227;26575;-63
2022/09/15 13:30:37;;;;;;;3.00;1.15;;;;;;;;;;617084;228;26573;-62
2022/09/15 13:33:22;;;;;;;1.98;1.30;;;;;;;;;;619554;228;26618;-63
2022/09/15 13:36:06;;;;;;;3.28;1.48;;;;;;;;;;614763;233;26575;-63
2022/09/15 13:38:35;;;;;;;3.20;1.12;;;;;;;;;;613185;233;26635;-63
2022/09/15 13:41:23;;;;;;;4.50;1.60;;;;;;;;;;613957;233;26623;-63
2022/09/15 13:44:08;;;;;;;3.75;1.40;;;;;;;;;;602522;235;26662;-63
2022/09/15 13:46:43;;;;;;;3.53;1.30;;;;;;;;;;621309;230;26626;-63
2022/09/15 13:49:18;;;;;;;5.43;1.48;;;;;;;;;;617302;231;26597;-63
2022/09/15 13:54:29;;;;;;;2.10;1.15;;;;;;;;;;613630;228;26817;-63
2022/09/15 13:56:57;;;;;;;3.08;1.02;;;;;;;;;;618610;231;26564;-62
2022/09/15 13:59:40;;;;;;;3.58;1.42;;;;;;;;;;614949;233;26581;-63
2022/09/15 14:02:10;;;;;;;2.30;1.00;;;;;;;;;;614546;234;26628;-63
2022/09/15 14:04:37;;;;;;;2.33;0.98;;;;;;;;;;614801;228;27333;-63
2022/09/15 14:07:06;;;;;;;2.60;1.10;;;;;;;;;;614864;228;26667;-64
2022/09/15 14:09:37;;;;;;;2.75;1.00;;;;;;;;;;614050;234;26849;-63
2022/09/15 14:12:04;;;;;;;2.28;1.23;;;;;;;;;;615609;234;26561;-63
2022/09/15 14:14:35;;;;;;;3.05;1.10;;;;;;;;;;615808;233;26537;-63
2022/09/15 14:17:04;;;;;;;6.25;1.42;;;;;;;;;;615918;234;26581;-63
2022/09/15 14:19:37;;;;;;;1.95;1.30;;;;;;;;;;616009;234;26980;-63
2022/09/15 14:22:12;;;;;;;1.98;0.90;;;;;;;;;;615927;228;26815;-63
2022/09/15 14:24:40;;;;;;;1.27;1.00;;;;;;;;;;615529;234;26551;-63
2022/09/15 14:27:09;;;;;;;2.25;1.00;;;;;;;;;;615462;228;26808;-63
2022/09/15 14:29:38;;;;;;;2.87;1.33;;;;;;;;;;615457;233;26574;-63
2022/09/15 14:32:08;;;;;;;2.03;1.00;;;;;;;;;;615429;234;26643;-63
2022/09/15 14:34:37;;;;;;;1.30;1.00;;;;;;;;;;616249;231;26581;-63
2022/09/15 14:37:07;;;;;;;2.47;1.12;;;;;;;;;;616756;233;26568;-63
2022/09/15 14:39:36;;;;;;;1.48;1.20;;;;;;;;;;616484;227;26532;-63
2022/09/15 14:42:08;;;;;;;2.90;1.17;;;;;;;;;;616449;228;26627;-63
2022/09/15 14:44:36;;;;;;;1.30;1.20;;;;;;;;;;615585;232;26569;-63
2022/09/15 14:47:20;;;;;;;1.87;1.02;;;;;;;;;;616091;232;26832;-63
2022/09/15 14:49:52;;;;;;;2.15;1.23;;;;;;;;;;615954;232;26819;-63
2022/09/15 14:52:26;;;;;;;4.43;1.30;;;;;;;;;;614832;232;26563;-63
2022/09/15 14:54:55;;;;;;;1.83;1.10;;;;;;;;;;615762;232;26836;-63
2022/09/15 14:57:25;;;;;;;0.90;0.90;;;;;;;;;;615318;230;27356;-62
2022/09/15 14:59:54;;;;;;;2.62;1.30;;;;;;;;;;617491;230;26577;-62
2022/09/15 15:02:24;;;;;;;3.00;1.30;;;;;;;;;;619574;230;26567;-62
2022/09/15 15:04:53;;;;;;;1.12;0.93;;;;;;;;;;618179;231;26578;-62